01:07 Rennrad Moetz - Pettnau - Zirl - Kematen - Voels - Radweg - Innsbruck ARZ
Ort Moetz Datum 08.09.2017 06:20:17
Kategorie Rennrad
Distanz 39,13 Kilometer Steigung 84,0 Meter Gefälle -140,0 Meter
Gesamt Zeit 01:07:22 Aktiv 01:07:04 Pause 00:00:18
Durchs. Tempo 35,0 km/h Tempo max. 50,7 km/h Tempo min. 20,4 km/h
Kalorien 0 Durchs. HF 130 BPM HF max. 154 BPM
Wetter 12 °C PartClouds Min/Max: 11,4 °C/12,2 °C; Druck: 998,6 mbar; Rel. Feuchte: 94,8%; Taupunkt: 11,3 °C; Windgeschwindigkeit: 0,0 km/h; Niederschlag: 0,0mm
Ausrüstung Bontrager - RL Road
Scott - Addict 20
Shimano - CN-HG601-11
Notiz Moetz - Pettnau - Zirl - Kematen - Voels - Radweg - Innsbruck ARZ ...trocken, frisch, praktisch windstill - eher flott ... garmin connect
Splits
Distanz (km) Gesamt Zeit Split Zeit Split Tempo Split Tempo Höhenprofil (m)
1,00 00:02:02 00:02:02 00:02:02 29,5 -9,96
2,00 00:03:50 00:01:48 00:01:48 33,2 0,24
3,00 00:05:30 00:01:39 00:01:40 36,1 -0,65
4,00 00:07:11 00:01:41 00:01:41 35,5 -3,88
5,00 00:08:48 00:01:37 00:01:37 37,0 0,73
6,00 00:10:26 00:01:38 00:01:38 36,7 -0,34
7,00 00:12:06 00:01:39 00:01:40 36,1 -1,17
8,00 00:13:41 00:01:34 00:01:34 38,1 -7,52
9,00 00:15:21 00:01:39 00:01:40 36,0 -2,74
10,00 00:17:04 00:01:43 00:01:44 34,8 0,66
11,00 00:18:43 00:01:38 00:01:39 36,5 0,29
12,00 00:20:22 00:01:39 00:01:39 36,2 -6,20
13,00 00:22:00 00:01:38 00:01:38 36,7 -0,05
14,00 00:23:50 00:01:50 00:01:50 32,6 -0,02
15,00 00:25:38 00:01:47 00:01:48 33,4 -4,49
16,00 00:27:15 00:01:37 00:01:37 37,1 3,45
17,00 00:28:55 00:01:40 00:01:40 35,9 -8,07
18,00 00:30:36 00:01:40 00:01:41 35,8 0,00
19,00 00:32:17 00:01:40 00:01:41 35,8 -0,49
20,00 00:33:58 00:01:41 00:01:41 35,6 -0,80
21,00 00:35:41 00:01:43 00:01:44 34,7 -3,32
22,00 00:37:24 00:01:42 00:01:43 35,1 -3,84
23,00 00:39:17 00:01:53 00:01:53 31,8 11,32
24,00 00:40:59 00:01:41 00:01:41 35,5 -0,70
25,00 00:43:16 00:02:17 00:02:18 26,2 16,73
26,00 00:44:47 00:01:31 00:01:31 39,5 -10,56
27,00 00:46:07 00:01:20 00:01:20 44,9 -29,56
28,00 00:47:42 00:01:34 00:01:35 38,0 4,22
29,00 00:49:25 00:01:43 00:01:43 34,9 0,31
30,00 00:51:05 00:01:39 00:01:40 36,1 -2,65
31,00 00:52:37 00:01:32 00:01:32 39,0 -3,25
32,00 00:54:13 00:01:36 00:01:36 37,5 -1,08
33,00 00:55:57 00:01:44 00:01:44 34,6 2,24
34,00 00:57:58 00:02:00 00:02:01 29,9 -8,16
35,00 00:59:39 00:01:40 00:01:41 35,8 -3,68
36,00 01:01:20 00:01:41 00:01:42 35,5 -1,99
37,00 01:03:03 00:01:42 00:01:43 35,1 -1,94
38,00 01:04:59 00:01:56 00:01:56 30,9 1,12
39,00 01:06:45 00:01:45 00:01:46 34,0 6,08
39,15 01:07:04 00:00:18 00:02:02 29,5 0,00